Ogijares, Spain
Current Conditions -  °F | °C
As of 11:00 PM on Thursday 27 Nov 2014 (Local Time) from LEGR Reporting Station
Heavy Rain Heavy Rain  
Wind Chill: 50°   Ceiling: 7000
Heat Index: 50°   Visibility: 6mi
Dew Point: 46°   Wind: 6mph
Humidity: 87%   Direction: 150°SSE
Pressure: 29.41"   Gusts: NA
Location:  37.12°N, 3.61°W
Report Text: LEGR 272200Z 15005KT 9999 +RA SCT040 BKN070 10/08 Q0996
Loading
Personal Weather Stations






























Interactive Weather Map New forecast layout! Learn more

10-Day Weather Forecast

Advertisements
Track Severe Weather on mobile